Time;durP1;ratioP1;P1;durP2;ratioP2;P2;SDS_P1;SDS_P2;PMS_P1;PMS_P2;Temp;Humidity;BMP_temperature;BMP_pressure;BME280_temperature;BME280_humidity;BME280_pressure;Samples;Min_cycle;Max_cycle;Signal;HPM_P1;HPM_P2
2021/10/25 00:02:24;;;;;;;;;;;;;;;;;;5032546;28;19923;-83
2021/10/25 00:04:50;;;;;;;;;;;;;;;;;;5021019;28;19924;-83
2021/10/25 00:07:15;;;;;;;;;;;;;;;;;;5038744;28;19913;-83
2021/10/25 00:09:41;;;;;;;;;;;;;;;;;;5038662;28;19916;-83
2021/10/25 00:12:06;;;;;;;;;;;;;;;;;;5021953;28;19921;-82
2021/10/25 00:14:31;;;;;;;;;;;;;;;;;;5021982;28;20023;-83
2021/10/25 00:16:57;;;;;;;;;;;;;;;;;;5038415;28;19954;-83
2021/10/25 00:19:22;;;;;;;;;;;;;;;;;;5038327;28;19917;-83
2021/10/25 00:21:48;;;;;;;;;;;;;;;;;;5021737;28;19970;-83
2021/10/25 00:24:14;;;;;;;;;;;;;;;;;;5055013;28;19916;-83
2021/10/25 00:26:39;;;;;;;;;;;;;;;;;;5038258;28;20379;-83
2021/10/25 00:29:05;;;;;;;;;;;;;;;;;;5021462;28;19916;-83
2021/10/25 00:31:30;;;;;;;;;;;;;;;;;;5021410;28;19916;-83
2021/10/25 00:33:55;;;;;;;;;;;;;;;;;;5037969;28;19939;-83
2021/10/25 00:36:21;;;;;;;;;;;;;;;;;;5038042;28;19921;-83
2021/10/25 00:38:46;;;;;;;;;;;;;;;;;;5021047;28;20373;-83
2021/10/25 00:41:11;;;;;;;;;;;;;;;;;;5020686;28;19921;-83
2021/10/25 00:43:37;;;;;;;;;;;;;;;;;;5021286;28;20377;-83
2021/10/25 00:46:02;;;;;;;;;;;;;;;;;;5021053;28;20057;-82
2021/10/25 00:48:28;;;;;;;;;;;;;;;;;;5037908;28;20011;-83
2021/10/25 00:50:53;;;;;;;;;;;;;;;;;;5037427;28;20008;-83
2021/10/25 00:53:18;;;;;;;;;;;;;;;;;;5020924;28;19925;-83
2021/10/25 00:55:44;;;;;;;;;;;;;;;;;;5035269;28;19920;-83
2021/10/25 00:58:09;;;;;;;;;;;;;;;;;;5037724;28;19916;-83
2021/10/25 01:00:34;;;;;;;;;;;;;;;;;;5021039;28;19922;-83
2021/10/25 01:03:00;;;;;;;;;;;;;;;;;;5037218;28;19924;-82
2021/10/25 01:05:26;;;;;;;;;;;;;;;;;;5021143;28;19916;-83
2021/10/25 01:07:51;;;;;;;;;;;;;;;;;;5021496;28;19917;-83
2021/10/25 01:10:17;;;;;;;;;;;;;;;;;;5021196;28;19925;-83
2021/10/25 01:12:42;;;;;;;;;;;;;;;;;;5037190;28;19951;-83
2021/10/25 01:15:08;;;;;;;;;;;;;;;;;;5037275;28;19917;-83
2021/10/25 01:17:34;;;;;;;;;;;;;;;;;;5021333;28;19923;-83
2021/10/25 01:19:59;;;;;;;;;;;;;;;;;;5037054;28;19933;-82
2021/10/25 01:22:24;;;;;;;;;;;;;;;;;;5037563;28;20378;-83
2021/10/25 01:24:50;;;;;;;;;;;;;;;;;;5037375;28;19917;-82
2021/10/25 01:27:16;;;;;;;;;;;;;;;;;;5053308;28;19920;-83
2021/10/25 01:29:41;;;;;;;;;;;;;;;;;;5020655;28;19912;-83
2021/10/25 01:32:06;;;;;;;;;;;;;;;;;;5037256;28;19971;-83
2021/10/25 01:34:32;;;;;;;;;;;;;;;;;;5022047;28;19970;-83
2021/10/25 01:36:57;;;;;;;;;;;;;;;;;;5024814;28;19920;-82
2021/10/25 01:39:23;;;;;;;;;;;;;;;;;;5040878;28;20019;-83
2021/10/25 01:41:48;;;;;;;;;;;;;;;;;;5025537;28;20268;-83
2021/10/25 01:44:14;;;;;;;;;;;;;;;;;;5041828;28;19934;-83
2021/10/25 01:46:42;;;;;;;;;;;;;;;;;;5040932;28;19924;-83
2021/10/25 01:49:08;;;;;;;;;;;;;;;;;;5040753;28;19928;-83
2021/10/25 01:51:33;;;;;;;;;;;;;;;;;;5023392;28;19924;-83
2021/10/25 01:53:59;;;;;;;;;;;;;;;;;;5040320;28;19917;-82
2021/10/25 01:56:24;;;;;;;;;;;;;;;;;;5034105;28;20280;-83
2021/10/25 01:58:50;;;;;;;;;;;;;;;;;;5024946;28;19913;-83
2021/10/25 02:01:16;;;;;;;;;;;;;;;;;;5040731;28;20285;-83
2021/10/25 02:03:41;;;;;;;;;;;;;;;;;;5023444;28;19916;-83
2021/10/25 02:06:06;;;;;;;;;;;;;;;;;;5057617;28;20304;-83
2021/10/25 02:08:32;;;;;;;;;;;;;;;;;;5023773;28;20386;-82
2021/10/25 02:10:57;;;;;;;;;;;;;;;;;;5023843;28;20003;-83
2021/10/25 02:13:22;;;;;;;;;;;;;;;;;;5024264;28;19966;-82
2021/10/25 02:15:48;;;;;;;;;;;;;;;;;;5024328;28;19952;-83
2021/10/25 02:18:13;;;;;;;;;;;;;;;;;;5023655;28;20337;-81
2021/10/25 02:20:42;;;;;;;;;;;;;;;;;;5038529;28;19917;-82
2021/10/25 02:23:08;;;;;;;;;;;;;;;;;;5020985;28;20048;-82
2021/10/25 02:25:33;;;;;;;;;;;;;;;;;;5047788;28;19924;-81
2021/10/25 02:27:59;;;;;;;;;;;;;;;;;;5041110;28;19913;-81
2021/10/25 02:30:24;;;;;;;;;;;;;;;;;;5057225;28;19912;-82
2021/10/25 02:32:50;;;;;;;;;;;;;;;;;;5040775;28;19980;-81
2021/10/25 02:35:15;;;;;;;;;;;;;;;;;;5057325;28;20404;-81
2021/10/25 02:37:41;;;;;;;;;;;;;;;;;;5024255;28;19913;-82
2021/10/25 02:40:06;;;;;;;;;;;;;;;;;;5040160;28;20764;-82
2021/10/25 02:42:32;;;;;;;;;;;;;;;;;;5040103;28;19920;-82
2021/10/25 02:44:58;;;;;;;;;;;;;;;;;;5031668;28;19921;-81
2021/10/25 02:47:23;;;;;;;;;;;;;;;;;;5038181;28;19927;-81
2021/10/25 02:49:48;;;;;;;;;;;;;;;;;;5020245;28;19917;-82
2021/10/25 02:52:14;;;;;;;;;;;;;;;;;;5039632;28;20362;-82
2021/10/25 02:54:39;;;;;;;;;;;;;;;;;;5023444;28;20367;-81
2021/10/25 02:57:05;;;;;;;;;;;;;;;;;;5056455;28;19990;-81
2021/10/25 02:59:30;;;;;;;;;;;;;;;;;;5056736;28;20282;-82
2021/10/25 03:01:56;;;;;;;;;;;;;;;;;;5023471;28;19919;-82
2021/10/25 03:04:22;;;;;;;;;;;;;;;;;;5039938;28;19923;-81
2021/10/25 03:06:47;;;;;;;;;;;;;;;;;;5040170;28;19924;-83
2021/10/25 03:09:13;;;;;;;;;;;;;;;;;;5039887;28;19917;-82
2021/10/25 03:11:38;;;;;;;;;;;;;;;;;;5040020;28;20026;-82
2021/10/25 03:14:03;;;;;;;;;;;;;;;;;;5040022;28;19919;-82
2021/10/25 03:16:32;;;;;;;;;;;;;;;;;;5039698;28;19952;-82
2021/10/25 03:18:57;;;;;;;;;;;;;;;;;;5056620;28;19916;-82
2021/10/25 03:21:23;;;;;;;;;;;;;;;;;;5039189;28;19943;-81
2021/10/25 03:23:49;;;;;;;;;;;;;;;;;;5056025;28;20031;-81
2021/10/25 03:26:14;;;;;;;;;;;;;;;;;;5039512;28;19912;-82
2021/10/25 03:28:40;;;;;;;;;;;;;;;;;;5039761;28;19916;-82
2021/10/25 03:31:06;;;;;;;;;;;;;;;;;;5039596;28;19912;-82
2021/10/25 03:33:33;;;;;;;;;;;;;;;;;;5039850;28;20386;-81
2021/10/25 03:36:00;;;;;;;;;;;;;;;;;;5055578;28;19948;-81
2021/10/25 03:38:25;;;;;;;;;;;;;;;;;;5051157;28;20394;-81
2021/10/25 03:40:52;;;;;;;;;;;;;;;;;;5019261;28;19959;-81
2021/10/25 03:43:19;;;;;;;;;;;;;;;;;;5034331;28;20011;-82
2021/10/25 03:45:56;;;;;;;;;;;;;;;;;;5055773;28;20358;-81
2021/10/25 03:50:49;;;;;;;;;;;;;;;;;;5055404;28;19921;-81
2021/10/25 03:53:41;;;;;;;;;;;;;;;;;;5038808;28;20374;-81
2021/10/25 03:56:13;;;;;;;;;;;;;;;;;;5040965;28;19913;-81
2021/10/25 04:04:03;;;;;;;;;;;;;;;;;;5040637;28;19963;-82
2021/10/25 04:27:58;;;;;;;;;;;;;;;;;;5038664;28;19920;-80
2021/10/25 04:30:24;;;;;;;;;;;;;;;;;;5023353;28;20385;-81
2021/10/25 04:32:49;;;;;;;;;;;;;;;;;;5037966;28;19952;-81
2021/10/25 04:35:14;;;;;;;;;;;;;;;;;;5038009;28;19935;-82
2021/10/25 04:37:40;;;;;;;;;;;;;;;;;;5021559;28;20053;-81
2021/10/25 04:40:05;;;;;;;;;;;;;;;;;;5054324;28;20010;-82
2021/10/25 04:42:31;;;;;;;;;;;;;;;;;;5054580;28;20274;-81
2021/10/25 04:44:57;;;;;;;;;;;;;;;;;;5037816;28;19920;-81
2021/10/25 04:47:22;;;;;;;;;;;;;;;;;;5038079;28;20358;-81
2021/10/25 04:49:47;;;;;;;;;;;;;;;;;;5054268;28;19916;-81
2021/10/25 04:52:13;;;;;;;;;;;;;;;;;;5037719;28;19983;-82
2021/10/25 04:54:38;;;;;;;;;;;;;;;;;;5054644;28;20436;-81
2021/10/25 04:57:03;;;;;;;;;;;;;;;;;;5054435;28;20393;-81
2021/10/25 04:59:29;;;;;;;;;;;;;;;;;;5037388;28;19989;-82
2021/10/25 05:01:54;;;;;;;;;;;;;;;;;;5054503;28;19913;-81
2021/10/25 05:04:20;;;;;;;;;;;;;;;;;;5033751;28;19920;-81
2021/10/25 05:06:45;;;;;;;;;;;;;;;;;;5018093;28;20378;-81
2021/10/25 05:09:11;;;;;;;;;;;;;;;;;;5020296;28;19922;-81
2021/10/25 05:11:36;;;;;;;;;;;;;;;;;;5020859;28;19924;-81
2021/10/25 05:14:02;;;;;;;;;;;;;;;;;;5037425;28;19917;-81
2021/10/25 05:16:27;;;;;;;;;;;;;;;;;;5021656;28;20320;-81
2021/10/25 05:18:52;;;;;;;;;;;;;;;;;;5037328;28;19920;-81
2021/10/25 05:21:19;;;;;;;;;;;;;;;;;;5037390;28;20278;-81
2021/10/25 05:23:45;;;;;;;;;;;;;;;;;;5054259;28;19923;-81
2021/10/25 05:26:10;;;;;;;;;;;;;;;;;;5020593;28;19913;-82
2021/10/25 05:28:36;;;;;;;;;;;;;;;;;;5050217;28;19917;-81
2021/10/25 05:31:01;;;;;;;;;;;;;;;;;;5034094;28;20019;-82
2021/10/25 05:33:27;;;;;;;;;;;;;;;;;;5017571;28;19917;-81
2021/10/25 05:35:52;;;;;;;;;;;;;;;;;;5032719;28;19952;-83
2021/10/25 05:38:18;;;;;;;;;;;;;;;;;;5016874;28;19916;-83
2021/10/25 05:40:43;;;;;;;;;;;;;;;;;;5018191;28;19921;-83
2021/10/25 05:43:09;;;;;;;;;;;;;;;;;;5020840;28;19912;-82
2021/10/25 05:45:35;;;;;;;;;;;;;;;;;;5020476;28;19917;-82
2021/10/25 05:48:00;;;;;;;;;;;;;;;;;;5037543;28;19912;-82
2021/10/25 05:50:26;;;;;;;;;;;;;;;;;;5036949;28;20018;-82
2021/10/25 05:52:51;;;;;;;;;;;;;;;;;;5037416;28;19917;-83
2021/10/25 05:55:22;;;;;;;;;;;;;;;;;;5037112;28;19919;-82
2021/10/25 05:57:48;;;;;;;;;;;;;;;;;;5037725;28;19916;-82
2021/10/25 06:00:14;;;;;;;;;;;;;;;;;;5020730;28;19965;-83
2021/10/25 06:02:42;;;;;;;;;;;;;;;;;;5037515;28;19912;-82
2021/10/25 06:05:07;;;;;;;;;;;;;;;;;;5054192;28;20417;-82
2021/10/25 06:07:33;;;;;;;;;;;;;;;;;;5020826;28;19917;-82
2021/10/25 06:09:59;;;;;;;;;;;;;;;;;;5037118;28;19912;-82
2021/10/25 06:12:25;;;;;;;;;;;;;;;;;;5020601;28;19912;-82
2021/10/25 06:14:53;;;;;;;;;;;;;;;;;;5037175;28;20456;-83
2021/10/25 06:17:38;;;;;;;;;;;;;;;;;;5017801;28;19929;-82
2021/10/25 06:20:03;;;;;;;;;;;;;;;;;;5018947;28;20385;-83
2021/10/25 06:22:31;;;;;;;;;;;;;;;;;;5056195;28;19926;-82
2021/10/25 06:24:56;;;;;;;;;;;;;;;;;;5040888;28;20369;-82
2021/10/25 06:27:22;;;;;;;;;;;;;;;;;;5040431;28;19916;-84
2021/10/25 06:29:47;;;;;;;;;;;;;;;;;;5057277;28;19920;-82
2021/10/25 06:32:12;;;;;;;;;;;;;;;;;;5038516;28;20408;-82
2021/10/25 06:34:41;;;;;;;;;;;;;;;;;;5057472;28;19913;-82
2021/10/25 06:37:07;;;;;;;;;;;;;;;;;;5041882;28;19912;-81
2021/10/25 06:39:39;;;;;;;;;;;;;;;;;;5057341;28;19924;-81
2021/10/25 06:42:05;;;;;;;;;;;;;;;;;;5025415;28;20441;-81
2021/10/25 06:44:33;;;;;;;;;;;;;;;;;;5039977;28;19947;-81
2021/10/25 06:46:59;;;;;;;;;;;;;;;;;;5058037;28;19961;-81
2021/10/25 06:49:28;;;;;;;;;;;;;;;;;;5040043;28;20309;-81
2021/10/25 06:51:53;;;;;;;;;;;;;;;;;;5040965;28;20380;-81
2021/10/25 06:54:18;;;;;;;;;;;;;;;;;;5023896;28;19951;-81
2021/10/25 06:56:44;;;;;;;;;;;;;;;;;;5039869;28;19917;-81
2021/10/25 06:59:09;;;;;;;;;;;;;;;;;;5040721;28;19955;-81
2021/10/25 07:01:34;;;;;;;;;;;;;;;;;;5039489;28;20014;-81
2021/10/25 07:04:00;;;;;;;;;;;;;;;;;;5019965;28;20401;-81
2021/10/25 07:06:27;;;;;;;;;;;;;;;;;;5020358;28;20008;-81
2021/10/25 07:08:53;;;;;;;;;;;;;;;;;;5037541;28;19916;-81
2021/10/25 07:11:18;;;;;;;;;;;;;;;;;;5036984;28;19962;-81
2021/10/25 07:13:49;;;;;;;;;;;;;;;;;;5038825;28;20379;-81
2021/10/25 07:16:29;;;;;;;;;;;;;;;;;;5039854;28;19916;-81
2021/10/25 08:04:51;;;;;;;;;;;;;;;;;;5055710;28;19999;-81
2021/10/25 08:07:33;;;;;;;;;;;;;;;;;;5071173;28;20026;-84
2021/10/25 08:10:01;;;;;;;;;;;;;;;;;;5054879;28;19920;-85
2021/10/25 08:12:29;;;;;;;;;;;;;;;;;;5040011;28;20003;-84
2021/10/25 08:15:03;;;;;;;;;;;;;;;;;;5022627;28;19920;-84
2021/10/25 08:17:48;;;;;;;;;;;;;;;;;;5023817;28;19912;-84
2021/10/25 08:20:14;;;;;;;;;;;;;;;;;;5024550;28;19921;-82
2021/10/25 08:22:41;;;;;;;;;;;;;;;;;;5022495;28;19921;-82
2021/10/25 08:25:06;;;;;;;;;;;;;;;;;;5021973;28;19966;-82
2021/10/25 08:27:32;;;;;;;;;;;;;;;;;;5018059;28;19924;-81
2021/10/25 08:29:57;;;;;;;;;;;;;;;;;;5017939;28;19917;-81
2021/10/25 08:35:22;;;;;;;;;;;;;;;;;;5076237;28;19919;-81
2021/10/25 08:40:35;;;;;;;;;;;;;;;;;;5059556;28;19997;-81
2021/10/25 08:43:00;;;;;;;;;;;;;;;;;;5021884;28;20317;-82
2021/10/25 08:45:30;;;;;;;;;;;;;;;;;;5022324;28;19924;-82
2021/10/25 08:47:57;;;;;;;;;;;;;;;;;;5055616;28;19958;-81
2021/10/25 08:50:23;;;;;;;;;;;;;;;;;;5055028;28;19927;-81
2021/10/25 08:52:51;;;;;;;;;;;;;;;;;;5038233;28;19916;-81
2021/10/25 08:55:17;;;;;;;;;;;;;;;;;;5054715;28;19919;-81
2021/10/25 08:57:43;;;;;;;;;;;;;;;;;;5021529;28;19967;-81
2021/10/25 09:00:09;;;;;;;;;;;;;;;;;;5038724;28;19948;-83
2021/10/25 09:02:35;;;;;;;;;;;;;;;;;;5038534;28;19912;-81
2021/10/25 09:05:08;;;;;;;;;;;;;;;;;;5060811;28;20412;-81
2021/10/25 09:07:46;;;;;;;;;;;;;;;;;;5055349;28;19920;-81
2021/10/25 09:10:11;;;;;;;;;;;;;;;;;;5036172;28;19956;-81
2021/10/25 09:12:37;;;;;;;;;;;;;;;;;;5038227;28;19924;-81
2021/10/25 09:15:02;;;;;;;;;;;;;;;;;;5038325;28;19966;-81
2021/10/25 09:17:28;;;;;;;;;;;;;;;;;;5037892;28;19928;-81
2021/10/25 09:19:57;;;;;;;;;;;;;;;;;;5037508;28;19920;-81
2021/10/25 09:22:23;;;;;;;;;;;;;;;;;;5022116;28;19928;-81
2021/10/25 09:24:49;;;;;;;;;;;;;;;;;;5037872;28;19919;-81
2021/10/25 09:27:14;;;;;;;;;;;;;;;;;;5053782;28;20294;-81
2021/10/25 09:29:43;;;;;;;;;;;;;;;;;;5037535;28;19912;-81
2021/10/25 09:32:12;;;;;;;;;;;;;;;;;;5034529;28;20002;-81
2021/10/25 09:34:46;;;;;;;;;;;;;;;;;;5019147;28;20000;-81
2021/10/25 09:37:17;;;;;;;;;;;;;;;;;;5036562;28;19928;-81
2021/10/25 09:39:56;;;;;;;;;;;;;;;;;;5049942;28;19920;-82
2021/10/25 09:50:17;;;;;;;;;;;;;;;;;;5055827;28;19916;-82
2021/10/25 09:52:43;;;;;;;;;;;;;;;;;;5020821;28;19975;-83
2021/10/25 09:55:13;;;;;;;;;;;;;;;;;;5021003;28;19989;-83
2021/10/25 09:57:42;;;;;;;;;;;;;;;;;;5024631;28;19916;-83
2021/10/25 10:00:08;;;;;;;;;;;;;;;;;;5041560;28;20401;-83
2021/10/25 10:02:34;;;;;;;;;;;;;;;;;;5045757;28;19912;-82
2021/10/25 10:05:01;;;;;;;;;;;;;;;;;;5041678;28;19923;-83
2021/10/25 10:07:27;;;;;;;;;;;;;;;;;;5015926;28;19939;-81
2021/10/25 10:09:52;;;;;;;;;;;;;;;;;;5035661;28;20337;-81
2021/10/25 10:12:18;;;;;;;;;;;;;;;;;;5023808;28;20439;-81
2021/10/25 10:15:10;;;;;;;;;;;;;;;;;;5058557;28;19916;-81
2021/10/25 10:17:59;;;;;;;;;;;;;;;;;;5037780;28;19917;-81
2021/10/25 10:20:25;;;;;;;;;;;;;;;;;;5056710;28;19924;-81
2021/10/25 10:22:51;;;;;;;;;;;;;;;;;;5056965;28;19925;-81
2021/10/25 10:25:30;;;;;;;;;;;;;;;;;;5040601;28;19970;-81
2021/10/25 10:28:05;;;;;;;;;;;;;;;;;;5040318;28;19966;-81
2021/10/25 10:30:31;;;;;;;;;;;;;;;;;;5040787;28;19955;-81
2021/10/25 10:33:03;;;;;;;;;;;;;;;;;;5041150;28;19940;-81
2021/10/25 10:35:38;;;;;;;;;;;;;;;;;;5040789;28;19916;-82
2021/10/25 10:38:03;;;;;;;;;;;;;;;;;;5056852;28;20401;-82
2021/10/25 10:40:42;;;;;;;;;;;;;;;;;;5040147;28;19917;-81
2021/10/25 10:43:21;;;;;;;;;;;;;;;;;;5023727;28;19917;-81
2021/10/25 10:45:57;;;;;;;;;;;;;;;;;;5016119;28;19916;-81
2021/10/25 10:48:27;;;;;;;;;;;;;;;;;;5039907;28;20305;-81
2021/10/25 10:50:59;;;;;;;;;;;;;;;;;;5040352;28;19931;-80
2021/10/25 10:53:29;;;;;;;;;;;;;;;;;;5040202;28;19921;-80
2021/10/25 10:55:59;;;;;;;;;;;;;;;;;;5057878;28;19962;-81
2021/10/25 10:58:39;;;;;;;;;;;;;;;;;;5050521;28;19914;-80
2021/10/25 11:01:05;;;;;;;;;;;;;;;;;;5041625;28;19921;-81
2021/10/25 11:03:31;;;;;;;;;;;;;;;;;;5041241;28;19958;-81
2021/10/25 11:06:01;;;;;;;;;;;;;;;;;;5057002;28;20259;-80
2021/10/25 11:08:40;;;;;;;;;;;;;;;;;;5055867;28;19919;-82
2021/10/25 11:11:10;;;;;;;;;;;;;;;;;;5036052;28;19917;-85
2021/10/25 11:13:40;;;;;;;;;;;;;;;;;;5023652;28;19966;-85
2021/10/25 11:16:09;;;;;;;;;;;;;;;;;;5041050;28;19920;-85
2021/10/25 11:18:40;;;;;;;;;;;;;;;;;;5039724;28;19966;-84
2021/10/25 11:21:12;;;;;;;;;;;;;;;;;;5056158;28;19925;-85
2021/10/25 11:23:40;;;;;;;;;;;;;;;;;;5056744;28;20405;-85
2021/10/25 11:26:21;;;;;;;;;;;;;;;;;;5023066;28;19955;-85
2021/10/25 11:28:53;;;;;;;;;;;;;;;;;;5023364;28;20338;-85
2021/10/25 11:31:18;;;;;;;;;;;;;;;;;;5037948;28;19916;-85
2021/10/25 11:33:47;;;;;;;;;;;;;;;;;;5022861;28;19920;-84
2021/10/25 11:36:12;;;;;;;;;;;;;;;;;;5023021;28;19913;-85
2021/10/25 11:38:40;;;;;;;;;;;;;;;;;;5022958;28;20390;-84
2021/10/25 11:41:06;;;;;;;;;;;;;;;;;;5038987;28;19916;-85
2021/10/25 11:43:31;;;;;;;;;;;;;;;;;;5022864;28;19938;-85
2021/10/25 11:45:57;;;;;;;;;;;;;;;;;;5019597;28;19967;-85
2021/10/25 11:48:29;;;;;;;;;;;;;;;;;;5042885;28;19980;-86
2021/10/25 11:50:58;;;;;;;;;;;;;;;;;;5018948;28;19916;-85
2021/10/25 11:53:26;;;;;;;;;;;;;;;;;;5019410;28;19932;-84
2021/10/25 11:55:52;;;;;;;;;;;;;;;;;;5037208;28;19913;-84
2021/10/25 11:58:19;;;;;;;;;;;;;;;;;;5023054;28;19913;-84
2021/10/25 12:00:47;;;;;;;;;;;;;;;;;;5056011;28;19912;-83
2021/10/25 12:03:21;;;;;;;;;;;;;;;;;;5023036;28;20439;-84
2021/10/25 12:05:46;;;;;;;;;;;;;;;;;;5019418;28;19966;-84
2021/10/25 12:08:13;;;;;;;;;;;;;;;;;;5022485;28;19913;-83
2021/10/25 12:10:40;;;;;;;;;;;;;;;;;;5031885;28;19970;-85
2021/10/25 12:13:05;;;;;;;;;;;;;;;;;;5038539;28;20449;-85
2021/10/25 12:15:33;;;;;;;;;;;;;;;;;;5021536;28;19917;-85
2021/10/25 12:17:59;;;;;;;;;;;;;;;;;;5027832;28;19978;-84
2021/10/25 12:20:29;;;;;;;;;;;;;;;;;;5017044;28;19917;-84
2021/10/25 12:23:01;;;;;;;;;;;;;;;;;;5035802;28;19956;-85
2021/10/25 12:25:27;;;;;;;;;;;;;;;;;;5018286;28;19983;-85
2021/10/25 12:27:58;;;;;;;;;;;;;;;;;;5035228;28;20442;-85
2021/10/25 12:30:23;;;;;;;;;;;;;;;;;;5019597;28;19960;-85
2021/10/25 12:32:58;;;;;;;;;;;;;;;;;;5038286;28;20323;-85
2021/10/25 12:35:41;;;;;;;;;;;;;;;;;;5038035;28;20382;-85
2021/10/25 12:38:09;;;;;;;;;;;;;;;;;;5055244;28;19919;-85
2021/10/25 12:40:39;;;;;;;;;;;;;;;;;;5054329;28;20433;-84
2021/10/25 12:43:04;;;;;;;;;;;;;;;;;;5021730;28;20003;-85
2021/10/25 12:45:41;;;;;;;;;;;;;;;;;;5054660;28;19999;-85
2021/10/25 12:48:08;;;;;;;;;;;;;;;;;;5039675;28;19920;-86
2021/10/25 12:50:35;;;;;;;;;;;;;;;;;;5037492;28;19923;-85
2021/10/25 12:53:03;;;;;;;;;;;;;;;;;;5021808;28;19916;-85
2021/10/25 12:55:29;;;;;;;;;;;;;;;;;;5021522;28;19913;-85
2021/10/25 12:57:55;;;;;;;;;;;;;;;;;;5021498;28;19917;-85
2021/10/25 13:00:20;;;;;;;;;;;;;;;;;;5021549;28;19912;-85
2021/10/25 13:02:52;;;;;;;;;;;;;;;;;;5021166;28;19921;-85
2021/10/25 13:05:19;;;;;;;;;;;;;;;;;;5038604;28;20238;-85
2021/10/25 13:07:48;;;;;;;;;;;;;;;;;;5033884;28;19921;-85
2021/10/25 13:10:15;;;;;;;;;;;;;;;;;;5029894;28;19970;-85
2021/10/25 13:12:42;;;;;;;;;;;;;;;;;;5029599;28;19963;-84
2021/10/25 13:15:07;;;;;;;;;;;;;;;;;;5043341;28;19924;-85
2021/10/25 13:17:34;;;;;;;;;;;;;;;;;;5021509;28;19990;-86
2021/10/25 13:19:59;;;;;;;;;;;;;;;;;;5021292;28;19923;-85
2021/10/25 13:22:25;;;;;;;;;;;;;;;;;;5021155;28;19917;-85
2021/10/25 13:24:50;;;;;;;;;;;;;;;;;;5020551;28;19917;-85
2021/10/25 13:27:17;;;;;;;;;;;;;;;;;;5021140;28;19912;-84
2021/10/25 13:29:43;;;;;;;;;;;;;;;;;;5037249;28;19916;-85
2021/10/25 13:32:09;;;;;;;;;;;;;;;;;;5020837;28;20003;-85
2021/10/25 13:34:35;;;;;;;;;;;;;;;;;;5021738;28;19912;-86
2021/10/25 13:37:00;;;;;;;;;;;;;;;;;;5021579;28;19995;-86
2021/10/25 13:39:26;;;;;;;;;;;;;;;;;;5020977;28;19974;-81
2021/10/25 13:41:53;;;;;;;;;;;;;;;;;;5053508;28;19916;-81
2021/10/25 13:44:19;;;;;;;;;;;;;;;;;;5038095;28;19922;-81
2021/10/25 13:46:44;;;;;;;;;;;;;;;;;;5037248;28;20332;-80
2021/10/25 13:49:09;;;;;;;;;;;;;;;;;;5034049;28;19912;-80
2021/10/25 13:51:35;;;;;;;;;;;;;;;;;;5032790;28;19933;-81
2021/10/25 13:54:00;;;;;;;;;;;;;;;;;;5036838;28;19912;-80
2021/10/25 13:56:26;;;;;;;;;;;;;;;;;;5053640;28;19913;-79
2021/10/25 13:58:51;;;;;;;;;;;;;;;;;;5020857;28;20366;-79
2021/10/25 14:01:17;;;;;;;;;;;;;;;;;;5037411;28;20328;-79
2021/10/25 14:03:44;;;;;;;;;;;;;;;;;;5012132;28;20481;-79
2021/10/25 14:06:11;;;;;;;;;;;;;;;;;;5053905;28;19917;-80
2021/10/25 14:08:36;;;;;;;;;;;;;;;;;;5021005;28;19912;-80
2021/10/25 14:11:02;;;;;;;;;;;;;;;;;;5033304;28;19936;-81
2021/10/25 14:13:40;;;;;;;;;;;;;;;;;;5033796;28;20802;-79
2021/10/25 14:18:37;;;;;;;;;;;;;;;;;;5045683;28;20021;-80
2021/10/25 14:21:03;;;;;;;;;;;;;;;;;;5040206;28;20458;-79
2021/10/25 14:23:28;;;;;;;;;;;;;;;;;;5037247;28;19935;-80
2021/10/25 14:25:54;;;;;;;;;;;;;;;;;;5036221;28;20324;-80
2021/10/25 14:28:19;;;;;;;;;;;;;;;;;;5053655;28;19916;-81
2021/10/25 14:30:44;;;;;;;;;;;;;;;;;;5036334;28;19955;-80
2021/10/25 14:33:10;;;;;;;;;;;;;;;;;;5037010;28;19916;-79
2021/10/25 14:35:37;;;;;;;;;;;;;;;;;;5036396;28;19974;-79
2021/10/25 14:38:04;;;;;;;;;;;;;;;;;;5004085;28;20451;-79
2021/10/25 14:40:47;;;;;;;;;;;;;;;;;;5016432;28;19917;-80
2021/10/25 14:43:16;;;;;;;;;;;;;;;;;;5022749;28;19964;-80
2021/10/25 14:45:48;;;;;;;;;;;;;;;;;;5040354;28;20004;-80
2021/10/25 14:48:20;;;;;;;;;;;;;;;;;;5057065;28;19923;-80
2021/10/25 14:53:34;;;;;;;;;;;;;;;;;;5059335;28;20003;-80
2021/10/25 14:58:25;;;;;;;;;;;;;;;;;;5036733;28;20385;-80
2021/10/25 15:00:51;;;;;;;;;;;;;;;;;;5022890;28;19917;-81
2021/10/25 15:03:18;;;;;;;;;;;;;;;;;;5023286;28;20329;-80
2021/10/25 15:05:43;;;;;;;;;;;;;;;;;;5023746;28;19916;-80
2021/10/25 15:08:08;;;;;;;;;;;;;;;;;;5056827;28;20366;-80
2021/10/25 15:10:34;;;;;;;;;;;;;;;;;;5039035;28;19920;-81
2021/10/25 15:13:01;;;;;;;;;;;;;;;;;;5039874;28;19966;-80
2021/10/25 15:15:27;;;;;;;;;;;;;;;;;;5023200;28;20002;-80
2021/10/25 15:17:53;;;;;;;;;;;;;;;;;;5023031;28;20391;-80
2021/10/25 15:20:18;;;;;;;;;;;;;;;;;;5025366;28;20394;-80
2021/10/25 15:22:43;;;;;;;;;;;;;;;;;;5020122;28;19921;-81
2021/10/25 15:25:10;;;;;;;;;;;;;;;;;;5036185;28;19919;-81
2021/10/25 15:27:39;;;;;;;;;;;;;;;;;;5048787;28;19928;-80
2021/10/25 15:30:06;;;;;;;;;;;;;;;;;;5023120;28;20322;-81
2021/10/25 15:32:31;;;;;;;;;;;;;;;;;;5023328;28;19913;-82
2021/10/25 15:34:57;;;;;;;;;;;;;;;;;;5056103;28;20286;-82
2021/10/25 15:37:22;;;;;;;;;;;;;;;;;;5039391;28;19917;-80
2021/10/25 15:39:48;;;;;;;;;;;;;;;;;;5026943;28;20394;-80
2021/10/25 15:42:13;;;;;;;;;;;;;;;;;;5039790;28;20023;-80
2021/10/25 15:44:42;;;;;;;;;;;;;;;;;;5039380;28;19916;-80
2021/10/25 15:47:07;;;;;;;;;;;;;;;;;;5019764;28;19913;-80
2021/10/25 15:49:33;;;;;;;;;;;;;;;;;;5025189;28;19935;-80
2021/10/25 15:51:58;;;;;;;;;;;;;;;;;;5038842;28;19917;-79
2021/10/25 15:54:24;;;;;;;;;;;;;;;;;;5038662;28;19916;-80
2021/10/25 15:56:51;;;;;;;;;;;;;;;;;;5038118;28;19927;-80
2021/10/25 15:59:16;;;;;;;;;;;;;;;;;;5038601;28;19912;-80
2021/10/25 16:01:42;;;;;;;;;;;;;;;;;;5055523;28;20293;-80
2021/10/25 16:04:07;;;;;;;;;;;;;;;;;;5038550;28;19912;-80
2021/10/25 16:06:33;;;;;;;;;;;;;;;;;;5038628;28;20011;-80
2021/10/25 16:09:00;;;;;;;;;;;;;;;;;;5038495;28;20131;-80
2021/10/25 16:11:25;;;;;;;;;;;;;;;;;;5058055;28;19916;-80
2021/10/25 16:13:51;;;;;;;;;;;;;;;;;;5075394;28;20239;-80
2021/10/25 16:16:16;;;;;;;;;;;;;;;;;;5075182;28;19959;-80
2021/10/25 16:18:41;;;;;;;;;;;;;;;;;;5048927;28;19912;-79
2021/10/25 16:21:07;;;;;;;;;;;;;;;;;;5054820;28;19917;-80
2021/10/25 16:23:32;;;;;;;;;;;;;;;;;;5054970;28;20436;-79
2021/10/25 16:25:58;;;;;;;;;;;;;;;;;;5037740;28;19963;-79
2021/10/25 16:28:23;;;;;;;;;;;;;;;;;;5038567;28;20025;-79
2021/10/25 16:30:49;;;;;;;;;;;;;;;;;;5037846;28;19916;-79
2021/10/25 16:33:15;;;;;;;;;;;;;;;;;;5029971;28;19920;-79
2021/10/25 16:35:41;;;;;;;;;;;;;;;;;;5035900;28;19997;-79
2021/10/25 16:38:07;;;;;;;;;;;;;;;;;;5038522;28;19917;-79
2021/10/25 16:40:33;;;;;;;;;;;;;;;;;;5037683;28;19921;-79
2021/10/25 16:42:58;;;;;;;;;;;;;;;;;;5054349;28;19927;-79
2021/10/25 16:45:26;;;;;;;;;;;;;;;;;;5054339;28;20014;-79
2021/10/25 16:47:51;;;;;;;;;;;;;;;;;;5038500;28;19912;-79
2021/10/25 16:50:18;;;;;;;;;;;;;;;;;;5054218;28;19917;-79
2021/10/25 16:52:58;;;;;;;;;;;;;;;;;;5038326;28;19921;-79
2021/10/25 17:11:04;;;;;;;;;;;;;;;;;;5056347;28;19920;-80
2021/10/25 17:13:30;;;;;;;;;;;;;;;;;;5021362;28;20370;-79
2021/10/25 17:15:55;;;;;;;;;;;;;;;;;;5021264;28;19913;-79
2021/10/25 17:18:21;;;;;;;;;;;;;;;;;;5054141;28;19919;-78
2021/10/25 17:20:46;;;;;;;;;;;;;;;;;;5037246;28;20384;-79
2021/10/25 17:23:12;;;;;;;;;;;;;;;;;;5053926;28;19943;-79
2021/10/25 17:25:38;;;;;;;;;;;;;;;;;;5053507;28;19916;-80
2021/10/25 17:28:03;;;;;;;;;;;;;;;;;;5037081;28;20401;-79
2021/10/25 17:30:29;;;;;;;;;;;;;;;;;;5037542;28;19913;-79
2021/10/25 17:32:55;;;;;;;;;;;;;;;;;;5037160;28;19916;-79
2021/10/25 17:35:20;;;;;;;;;;;;;;;;;;5021089;28;19919;-80
2021/10/25 17:37:45;;;;;;;;;;;;;;;;;;5020611;28;19997;-79
2021/10/25 17:40:14;;;;;;;;;;;;;;;;;;5036370;28;20000;-79
2021/10/25 17:42:48;;;;;;;;;;;;;;;;;;5021069;28;19916;-81
2021/10/25 17:45:13;;;;;;;;;;;;;;;;;;5038414;28;19985;-82
2021/10/25 17:47:38;;;;;;;;;;;;;;;;;;5054424;28;19943;-82
2021/10/25 17:50:04;;;;;;;;;;;;;;;;;;5053364;28;19966;-80
2021/10/25 17:52:29;;;;;;;;;;;;;;;;;;5037628;28;20317;-80
2021/10/25 17:54:56;;;;;;;;;;;;;;;;;;5053367;28;20344;-79
2021/10/25 17:57:22;;;;;;;;;;;;;;;;;;5054283;28;19912;-80
2021/10/25 17:59:50;;;;;;;;;;;;;;;;;;5037014;28;20004;-80
2021/10/25 18:02:17;;;;;;;;;;;;;;;;;;5037942;28;19916;-82
2021/10/25 18:04:44;;;;;;;;;;;;;;;;;;5020990;28;20321;-83
2021/10/25 18:07:10;;;;;;;;;;;;;;;;;;5023761;28;20011;-84
2021/10/25 18:09:36;;;;;;;;;;;;;;;;;;5025339;28;20002;-82
2021/10/25 18:12:01;;;;;;;;;;;;;;;;;;5045189;28;19923;-83
2021/10/25 18:14:26;;;;;;;;;;;;;;;;;;5036937;28;19995;-82
2021/10/25 18:16:52;;;;;;;;;;;;;;;;;;5019340;28;19913;-83
2021/10/25 18:19:17;;;;;;;;;;;;;;;;;;5020701;28;19989;-82
2021/10/25 18:21:44;;;;;;;;;;;;;;;;;;5037360;28;19928;-82
2021/10/25 18:24:09;;;;;;;;;;;;;;;;;;5033166;28;19912;-83
2021/10/25 18:26:36;;;;;;;;;;;;;;;;;;5024222;28;20374;-84
2021/10/25 18:29:05;;;;;;;;;;;;;;;;;;5041015;28;19975;-84
2021/10/25 18:31:31;;;;;;;;;;;;;;;;;;5024244;28;20401;-83
2021/10/25 18:33:58;;;;;;;;;;;;;;;;;;5041046;28;19935;-83
2021/10/25 18:36:23;;;;;;;;;;;;;;;;;;5040442;28;20289;-82
2021/10/25 18:38:48;;;;;;;;;;;;;;;;;;5040552;28;19923;-83